Hlavní strana
METAR-TAF:

METAR-TAF

Letiště :

Ouagadougou, Burkina Faso

zeměpisná šířka: 12-21N, zeměpisná délka: 001-31W, výška: 316 m

Aktuální stav počasí

Zpráva byla vytvořena před 43 minutami, v 09:00 UTC
Východní vítr 11 kt
Teplota 26°C
Vlhkost vzduchu 13%
Tlak 1016 hPa
Viditelnost: 4500 m
rozsáhlý prach

METAR: DFFD 170900Z 09011KT 4500 DU NSC 26/M05 Q1016 NOSIG

Čas: 09:43 (09:43 UTC)

Předpověď počasí

Zpráva byla vytvořena před 4 hodinami a 43 minutami, v 05:00 UTC
Předpověď platná od 17 v 06 UTC do 18 v 12 UTC
Východoseverovýchodní vítr 8 kt
Viditelnost: 6000 m
Dočasný
od 17 v 06 UTC do 17 v 12 UTC
Viditelnost: 2500 m
rozsáhlý prach
Dočasný
od 17 v 17 UTC do 17 v 20 UTC
Viditelnost: 4000 m
rozsáhlý prach
Dočasný
od 18 v 06 UTC do 18 v 10 UTC
Viditelnost: 4000 m
rozsáhlý prach

TAF: DFFD 170500Z 1706/1812 06008KT 6000 NSC TEMPO 1706/1712 2500 DU TEMPO 1717/1720 4000 DU TEMPO 1806/1810 4000 DU

Stav a předpovědi počasí z více než 4 000 letišť (zprávy METAR a TAF).

Červené a žluté tečky na mapě představují dostupné meteorologické stanice.

Když kurzor umístíte na tečku, zobrazí se název stanice.

Pak kliknutím zobrazíte stav a předpověď počasí.

Chcete-li změnit mapu, kliknutím na zelené tlačítko se znaménkem +mapu přiblížíte, kliknutím na zelené tlačítko se znaménkem – mapu oddálíte a kliknutím na zelené šipky přejdete na sousední mapy.


METAR-TAF: